Time;durP1;ratioP1;P1;durP2;ratioP2;P2;SDS_P1;SDS_P2;PMS_P1;PMS_P2;Temp;Humidity;BMP_temperature;BMP_pressure;BME280_temperature;BME280_humidity;BME280_pressure;Samples;Min_cycle;Max_cycle;Signal;HPM_P1;HPM_P2
2022/07/23 00:00:40;;;;;;;0.00;0.00;;;;;;;19.50;57.54;102036.09;5048321;28;20123;-80
2022/07/23 00:03:07;;;;;;;0.75;0.75;;;;;;;19.42;58.22;102032.84;5057898;28;20021;-82
2022/07/23 00:05:33;;;;;;;0.00;0.00;;;;;;;19.42;58.14;102033.72;5058142;28;20021;-82
2022/07/23 00:07:59;;;;;;;0.10;0.10;;;;;;;19.40;58.27;102035.56;5059672;28;20029;-81
2022/07/23 00:10:25;;;;;;;0.00;0.00;;;;;;;19.36;58.32;102040.19;5048871;28;20433;-82
2022/07/23 00:12:51;;;;;;;0.10;0.10;;;;;;;19.36;58.30;102031.25;5048256;28;20488;-82
2022/07/23 00:15:18;;;;;;;0.10;0.10;;;;;;;19.31;59.08;102036.81;5048984;28;20028;-81
2022/07/23 00:17:44;;;;;;;0.90;0.90;;;;;;;19.27;59.36;102034.31;5057299;28;20021;-82
2022/07/23 00:20:11;;;;;;;0.10;0.10;;;;;;;19.24;59.46;102029.94;5056584;28;20108;-82
2022/07/23 00:22:44;;;;;;;0.10;0.10;;;;;;;19.23;58.99;102026.34;5045323;28;20116;-81
2022/07/23 00:25:11;;;;;;;0.00;0.00;;;;;;;19.21;59.18;102020.16;5048242;28;20025;-81
2022/07/23 00:27:37;;;;;;;0.00;0.00;;;;;;;19.20;59.33;102026.47;5050019;28;20034;-81
2022/07/23 00:30:04;;;;;;;0.63;0.63;;;;;;;19.18;58.77;102014.91;5047083;28;20021;-82
2022/07/23 00:32:30;;;;;;;0.00;0.00;;;;;;;19.14;58.99;102009.69;5047946;28;20045;-80
2022/07/23 00:34:56;;;;;;;0.05;0.05;;;;;;;19.13;59.58;102006.16;5052182;28;20440;-80
2022/07/23 00:37:22;;;;;;;0.00;0.00;;;;;;;19.13;59.36;102011.53;5036549;28;20056;-81
2022/07/23 00:39:48;;;;;;;0.15;0.15;;;;;;;19.12;59.73;102008.91;5039827;28;20400;-81
2022/07/23 00:42:14;;;;;;;0.00;0.00;;;;;;;19.08;59.56;101998.25;5049883;28;20036;-80
2022/07/23 00:44:40;;;;;;;0.05;0.05;;;;;;;19.05;59.73;101995.69;5040332;28;20044;-81
2022/07/23 00:47:06;;;;;;;0.35;0.35;;;;;;;19.05;59.34;101994.81;5048358;28;20021;-81
2022/07/23 00:49:33;;;;;;;0.08;0.08;;;;;;;19.03;59.52;102002.06;5049135;28;20033;-83
2022/07/23 00:52:02;;;;;;;0.10;0.10;;;;;;;19.01;59.33;101988.66;5047274;28;20693;-83
2022/07/23 00:54:28;;;;;;;0.10;0.10;;;;;;;18.98;59.50;101991.47;5048594;28;20036;-82
2022/07/23 00:56:55;;;;;;;0.10;0.10;;;;;;;18.96;60.00;101987.97;5055882;28;20399;-81
2022/07/23 00:59:21;;;;;;;0.00;0.00;;;;;;;18.96;60.04;101987.97;5044738;28;20056;-81
2022/07/23 01:01:48;;;;;;;0.15;0.15;;;;;;;18.92;59.91;101980.97;5055623;28;20053;-82
2022/07/23 01:04:15;;;;;;;0.05;0.05;;;;;;;18.91;60.27;101987.25;5051475;28;20084;-83
2022/07/23 01:06:42;;;;;;;0.00;0.00;;;;;;;18.88;59.35;101987.34;5044964;28;20124;-84
2022/07/23 01:09:08;;;;;;;0.10;0.10;;;;;;;18.81;60.30;101985.81;5043446;28;20100;-81
2022/07/23 01:11:36;;;;;;;0.10;0.10;;;;;;;18.79;59.84;101980.50;5043615;28;20034;-81
2022/07/23 01:14:12;;;;;;;0.10;0.10;;;;;;;18.83;60.20;101981.25;5042760;28;20109;-82
2022/07/23 01:16:40;;;;;;;0.00;0.00;;;;;;;18.78;59.86;101984.13;5054568;28;20029;-80
2022/07/23 01:19:06;;;;;;;0.10;0.10;;;;;;;18.73;60.36;101981.59;5057216;28;20040;-83
2022/07/23 01:21:38;;;;;;;0.10;0.10;;;;;;;18.73;60.72;101986.09;5056315;28;20040;-82
2022/07/23 01:24:05;;;;;;;0.10;0.10;;;;;;;18.73;59.85;101988.78;5057192;28;20037;-82
2022/07/23 01:26:31;;;;;;;0.40;0.40;;;;;;;18.71;59.97;101975.41;5052193;28;20084;-82
2022/07/23 01:28:58;;;;;;;0.05;0.05;;;;;;;18.68;60.22;101964.78;5040321;28;20104;-82
2022/07/23 01:31:24;;;;;;;0.10;0.10;;;;;;;18.63;60.58;101977.50;5033641;28;20068;-82
2022/07/23 01:33:50;;;;;;;0.08;0.08;;;;;;;18.60;60.10;101974.91;5047527;28;20025;-82
2022/07/23 01:36:16;;;;;;;0.00;0.00;;;;;;;18.58;60.58;101979.47;5055604;28;20585;-82
2022/07/23 01:38:43;;;;;;;0.13;0.13;;;;;;;18.55;60.80;101987.63;5056075;28;20033;-82
2022/07/23 01:41:09;;;;;;;0.10;0.10;;;;;;;18.54;60.91;101992.13;5055848;28;20096;-82
2022/07/23 01:43:35;;;;;;;0.05;0.05;;;;;;;18.50;61.03;101995.81;5026832;28;20033;-82
2022/07/23 01:46:01;;;;;;;0.10;0.10;;;;;;;18.51;60.67;101994.03;5044046;28;20107;-82
2022/07/23 01:48:27;;;;;;;0.10;0.10;;;;;;;18.49;60.66;101987.84;5036444;28;20418;-82
2022/07/23 01:50:53;;;;;;;0.25;0.25;;;;;;;18.49;60.71;101993.19;5035742;28;20038;-81
2022/07/23 01:53:19;;;;;;;0.08;0.08;;;;;;;18.49;60.91;101994.09;5037272;28;20576;-81
2022/07/23 01:55:46;;;;;;;0.10;0.10;;;;;;;18.48;60.92;101992.34;5035955;28;20072;-81
2022/07/23 01:58:12;;;;;;;0.00;0.00;;;;;;;18.48;60.82;102000.38;5044799;28;20034;-82
2022/07/23 02:00:38;;;;;;;0.20;0.20;;;;;;;18.47;60.53;101993.28;5046408;28;20096;-81
2022/07/23 02:03:04;;;;;;;0.08;0.08;;;;;;;18.47;61.29;101997.75;5055065;28;20098;-82
2022/07/23 02:05:32;;;;;;;0.32;0.32;;;;;;;18.47;61.29;102000.41;5058066;28;20029;-84
2022/07/23 02:07:59;;;;;;;0.22;0.22;;;;;;;18.45;61.43;101996.94;5059415;28;20036;-82
2022/07/23 02:10:27;;;;;;;0.00;0.00;;;;;;;18.41;61.02;101993.47;5050381;28;20045;-82
2022/07/23 02:12:53;;;;;;;0.05;0.05;;;;;;;18.38;60.49;101991.78;5048999;28;20046;-82
2022/07/23 02:15:20;;;;;;;0.00;0.00;;;;;;;18.36;61.21;101987.41;5050478;28;20078;-83
2022/07/23 02:17:46;;;;;;;0.10;0.10;;;;;;;18.34;61.02;101990.13;5059035;28;20083;-82
2022/07/23 02:20:12;;;;;;;0.10;0.10;;;;;;;18.32;61.09;101983.94;5059118;28;20401;-80
2022/07/23 02:22:39;;;;;;;0.10;0.10;;;;;;;18.34;61.34;101992.78;5058863;28;20036;-82
2022/07/23 02:25:07;;;;;;;0.10;0.10;;;;;;;18.34;61.34;101990.13;5054178;28;20041;-82
2022/07/23 02:27:33;;;;;;;0.22;0.22;;;;;;;18.34;61.05;101990.13;5030632;28;20029;-82
2022/07/23 02:30:00;;;;;;;0.10;0.10;;;;;;;18.33;61.13;101983.03;5047617;28;20033;-83
2022/07/23 02:32:27;;;;;;;0.10;0.10;;;;;;;18.33;61.01;101983.03;5055289;28;20029;-82
2022/07/23 02:34:53;;;;;;;0.05;0.05;;;;;;;18.34;61.22;101978.50;5060628;28;20036;-81
2022/07/23 02:37:19;;;;;;;0.10;0.10;;;;;;;18.32;61.42;101983.94;5059518;28;20044;-82
2022/07/23 02:39:48;;;;;;;0.00;0.00;;;;;;;18.31;61.50;101984.00;5051957;28;20457;-83
2022/07/23 02:42:14;;;;;;;0.00;0.00;;;;;;;18.32;61.00;101992.00;5048912;28;20385;-83
2022/07/23 02:44:40;;;;;;;0.00;0.00;;;;;;;18.32;61.01;101992.00;5049995;28;20033;-82
2022/07/23 02:47:06;;;;;;;0.00;0.00;;;;;;;18.32;61.12;101991.09;5058596;28;20025;-84
2022/07/23 02:49:33;;;;;;;0.03;0.03;;;;;;;18.32;61.25;101996.47;5051911;28;20029;-78
2022/07/23 02:51:59;;;;;;;0.08;0.08;;;;;;;18.31;61.17;102006.34;5039514;28;20132;-82
2022/07/23 02:54:25;;;;;;;0.00;0.00;;;;;;;18.30;61.06;101995.66;5046551;28;20037;-83
2022/07/23 02:56:53;;;;;;;0.00;0.00;;;;;;;18.30;60.87;102004.56;5050744;28;20036;-83
2022/07/23 02:59:19;;;;;;;0.20;0.20;;;;;;;18.30;61.21;102009.94;5050262;28;20036;-81
2022/07/23 03:01:45;;;;;;;0.00;0.00;;;;;;;18.31;61.35;102016.19;5057421;28;20048;-83
2022/07/23 03:04:12;;;;;;;0.10;0.10;;;;;;;18.31;61.40;102014.38;5055870;28;20052;-83
2022/07/23 03:06:38;;;;;;;0.03;0.03;;;;;;;18.32;61.27;102016.13;5049236;28;20047;-83
2022/07/23 03:09:05;;;;;;;0.10;0.10;;;;;;;18.30;60.86;102009.94;5052397;28;20385;-83
2022/07/23 03:11:31;;;;;;;0.10;0.10;;;;;;;18.34;61.50;102008.88;5044520;28;20095;-83
2022/07/23 03:13:57;;;;;;;0.10;0.10;;;;;;;18.39;61.52;102008.75;5046357;28;20060;-82
2022/07/23 03:16:23;;;;;;;0.00;0.00;;;;;;;18.44;61.59;102001.41;5045945;28;20049;-82
2022/07/23 03:18:49;;;;;;;0.10;0.10;;;;;;;18.46;61.27;101998.69;5058094;28;20033;-82
2022/07/23 03:21:15;;;;;;;0.00;0.00;;;;;;;18.45;61.31;102000.47;5056973;28;20097;-82
2022/07/23 03:23:42;;;;;;;0.13;0.13;;;;;;;18.47;61.63;102003.09;5057689;28;20167;-81
2022/07/23 03:26:08;;;;;;;0.00;0.00;;;;;;;18.44;61.89;101996.03;5048974;28;20041;-82
2022/07/23 03:28:34;;;;;;;0.32;0.32;;;;;;;18.45;61.42;102002.31;5049175;28;20021;-81
2022/07/23 03:31:00;;;;;;;0.10;0.10;;;;;;;18.41;61.39;102006.91;5051223;28;20381;-80
2022/07/23 03:33:26;;;;;;;0.00;0.00;;;;;;;18.36;61.60;101999.00;5056905;28;20059;-79
2022/07/23 03:35:52;;;;;;;0.10;0.10;;;;;;;18.31;61.71;102011.69;5056281;28;20117;-81
2022/07/23 03:38:18;;;;;;;0.00;0.00;;;;;;;18.25;61.40;101995.81;5056527;28;20503;-81
2022/07/23 03:40:44;;;;;;;0.10;0.10;;;;;;;18.18;61.27;102000.50;5043169;28;20044;-79
2022/07/23 03:43:10;;;;;;;0.00;0.00;;;;;;;18.13;61.29;102001.59;5044042;28;20033;-81
2022/07/23 03:45:36;;;;;;;0.00;0.00;;;;;;;18.06;61.51;102001.78;5089236;22;20040;-80
2022/07/23 03:48:02;;;;;;;0.10;0.10;;;;;;;17.99;61.45;101999.34;5072890;28;20085;-80
2022/07/23 03:50:28;;;;;;;0.00;0.00;;;;;;;17.93;61.71;102005.75;5072896;28;20028;-80
2022/07/23 03:52:55;;;;;;;0.00;0.00;;;;;;;17.92;61.84;101998.66;5071104;28;20040;-80
2022/07/23 03:55:21;;;;;;;0.00;0.00;;;;;;;17.91;61.97;102005.81;5057429;28;20029;-80
2022/07/23 03:57:47;;;;;;;0.10;0.10;;;;;;;17.92;61.73;102004.88;5050360;28;20542;-80
2022/07/23 04:00:14;;;;;;;0.00;0.00;;;;;;;17.92;61.78;102004.03;5052352;28;20120;-80
2022/07/23 04:02:40;;;;;;;0.00;0.00;;;;;;;17.91;61.61;102007.63;5051251;28;20025;-80
2022/07/23 04:05:07;;;;;;;0.55;0.55;;;;;;;17.90;61.57;102008.53;5052314;28;20127;-80
2022/07/23 04:07:33;;;;;;;0.10;0.10;;;;;;;17.89;61.89;102018.38;5050900;28;20120;-80
2022/07/23 04:09:59;;;;;;;0.10;0.10;;;;;;;17.89;61.65;102015.69;5051199;28;20033;-80
2022/07/23 04:12:28;;;;;;;0.40;0.40;;;;;;;17.89;61.85;102017.50;5051028;28;20044;-80
2022/07/23 04:14:54;;;;;;;0.10;0.10;;;;;;;17.89;61.84;102015.69;5052131;28;20066;-80
2022/07/23 04:17:20;;;;;;;0.15;0.15;;;;;;;17.91;61.84;102024.56;5052243;28;20063;-80
2022/07/23 04:19:46;;;;;;;0.00;0.00;;;;;;;17.92;61.94;102020.13;5051624;28;20079;-80
2022/07/23 04:22:12;;;;;;;0.25;0.25;;;;;;;17.94;61.57;102020.94;5050017;28;20029;-80
2022/07/23 04:24:39;;;;;;;0.45;0.45;;;;;;;17.94;62.02;102020.94;5052002;28;20045;-80
2022/07/23 04:27:06;;;;;;;0.00;0.00;;;;;;;17.95;61.72;102022.72;5051665;28;20496;-80
2022/07/23 04:29:32;;;;;;;0.20;0.20;;;;;;;17.95;61.78;102031.63;5051743;28;20085;-80
2022/07/23 04:31:58;;;;;;;0.10;0.10;;;;;;;17.99;61.98;102020.81;5051242;28;20029;-80
2022/07/23 04:34:26;;;;;;;0.08;0.08;;;;;;;18.03;62.02;102023.34;5050995;28;20488;-80
2022/07/23 04:36:53;;;;;;;0.10;0.10;;;;;;;18.10;61.84;102029.38;5050838;28;20032;-80
2022/07/23 04:39:19;;;;;;;0.10;0.10;;;;;;;18.09;61.67;102028.53;5051995;28;20492;-80
2022/07/23 04:41:46;;;;;;;0.00;0.00;;;;;;;18.10;61.86;102029.38;5051171;28;20025;-80
2022/07/23 04:44:12;;;;;;;0.08;0.08;;;;;;;18.12;62.02;102027.53;5052242;28;20139;-80
2022/07/23 04:46:38;;;;;;;0.10;0.10;;;;;;;18.18;61.90;102031.81;5052487;28;20476;-80
2022/07/23 04:49:05;;;;;;;0.10;0.10;;;;;;;18.22;61.75;102033.47;5034295;28;20491;-80
2022/07/23 04:51:31;;;;;;;0.13;0.13;;;;;;;18.26;61.51;102038.66;5049777;28;20044;-80
2022/07/23 04:53:57;;;;;;;0.00;0.00;;;;;;;18.30;61.95;102036.75;5051278;28;20111;-80
2022/07/23 04:56:23;;;;;;;0.10;0.10;;;;;;;18.32;61.82;102034.91;5051895;28;20538;-80
2022/07/23 04:58:49;;;;;;;0.00;0.00;;;;;;;18.43;61.94;102040.78;5051987;28;20491;-80
2022/07/23 05:01:16;;;;;;;0.10;0.10;;;;;;;18.50;61.96;102032.53;5055173;28;20039;-80
2022/07/23 05:03:42;;;;;;;0.65;0.65;;;;;;;18.59;61.71;102033.09;5060988;28;20403;-80
2022/07/23 05:06:08;;;;;;;0.55;0.55;;;;;;;18.66;61.54;102031.06;5058270;28;20032;-80
2022/07/23 05:08:34;;;;;;;0.00;0.00;;;;;;;18.72;61.46;102033.53;5058496;28;20404;-80
2022/07/23 05:11:00;;;;;;;0.10;0.10;;;;;;;18.76;61.56;102040.53;5057963;28;20040;-80
2022/07/23 05:13:29;;;;;;;0.00;0.00;;;;;;;18.81;61.46;102036.84;5059721;28;20064;-80
2022/07/23 05:15:55;;;;;;;0.10;0.10;;;;;;;18.81;61.30;102036.84;5058432;28;20044;-80
2022/07/23 05:18:21;;;;;;;0.10;0.10;;;;;;;18.82;61.00;102038.59;5056841;28;20044;-80
2022/07/23 05:20:47;;;;;;;0.03;0.03;;;;;;;18.86;60.82;102040.22;5055365;28;20021;-80
2022/07/23 05:23:13;;;;;;;0.10;0.10;;;;;;;18.89;60.59;102045.47;5056654;28;20059;-80
2022/07/23 05:25:40;;;;;;;0.10;0.10;;;;;;;18.91;60.66;102041.84;5055378;28;20493;-80
2022/07/23 05:28:06;;;;;;;0.10;0.10;;;;;;;18.94;60.66;102039.97;5057015;28;20028;-80
2022/07/23 05:30:32;;;;;;;0.10;0.10;;;;;;;18.97;60.78;102048.81;5057835;28;20037;-80
2022/07/23 05:32:58;;;;;;;0.00;0.00;;;;;;;19.00;60.63;102046.00;5056842;28;20029;-80
2022/07/23 05:35:25;;;;;;;0.00;0.00;;;;;;;19.03;60.88;102048.59;5057984;28;20041;-80
2022/07/23 05:37:52;;;;;;;0.03;0.03;;;;;;;19.06;60.68;102029.66;5055733;28;20084;-80
2022/07/23 05:40:18;;;;;;;0.00;0.00;;;;;;;19.11;60.74;102034.88;5055330;28;20033;-80
2022/07/23 05:42:44;;;;;;;0.10;0.10;;;;;;;19.16;60.55;102032.00;5060913;28;20083;-80
2022/07/23 05:45:11;;;;;;;0.10;0.10;;;;;;;19.20;60.67;102033.66;5061085;28;20112;-80
2022/07/23 05:47:46;;;;;;;0.00;0.00;;;;;;;19.27;60.74;102035.16;5061295;28;20032;-80
2022/07/23 05:50:14;;;;;;;0.25;0.25;;;;;;;19.26;60.66;102044.16;5060016;28;20041;-80
2022/07/23 05:52:41;;;;;;;0.00;0.00;;;;;;;19.28;60.75;102047.69;5059780;28;20032;-80
2022/07/23 05:55:08;;;;;;;0.00;0.00;;;;;;;19.31;60.37;102044.88;5060670;28;20021;-80
2022/07/23 05:57:35;;;;;;;0.20;0.20;;;;;;;19.33;60.44;102051.06;5060623;28;20477;-80
2022/07/23 06:00:02;;;;;;;0.00;0.00;;;;;;;19.36;60.14;102042.88;5061086;28;20439;-80
2022/07/23 06:02:29;;;;;;;0.00;0.00;;;;;;;19.39;60.09;102040.09;5060326;28;20024;-80
2022/07/23 06:04:55;;;;;;;0.10;0.10;;;;;;;19.45;60.02;102046.16;5060485;28;20033;-80
2022/07/23 06:07:21;;;;;;;0.00;0.00;;;;;;;19.47;59.95;102050.53;5061525;28;20040;-80
2022/07/23 06:09:48;;;;;;;0.08;0.08;;;;;;;19.51;59.69;102052.16;5061954;28;20072;-80
2022/07/23 06:12:15;;;;;;;0.10;0.10;;;;;;;19.54;59.51;102059.25;5061270;28;20024;-80
2022/07/23 06:14:41;;;;;;;0.00;0.00;;;;;;;19.58;59.48;102055.50;5061627;28;20092;-80
2022/07/23 06:17:08;;;;;;;0.10;0.10;;;;;;;19.59;58.91;102057.28;5061828;28;20509;-80
2022/07/23 06:19:34;;;;;;;0.10;0.10;;;;;;;19.58;58.70;102060.88;5059436;28;20126;-80
2022/07/23 06:22:01;;;;;;;0.00;0.00;;;;;;;19.60;58.51;102053.66;5060025;28;20021;-80
2022/07/23 06:24:27;;;;;;;0.00;0.00;;;;;;;19.61;57.99;102063.44;5060679;28;20086;-80
2022/07/23 06:26:53;;;;;;;0.10;0.10;;;;;;;19.67;58.19;102062.34;5061082;28;20088;-80
2022/07/23 06:29:19;;;;;;;0.10;0.10;;;;;;;19.75;58.29;102062.03;5061716;28;20032;-80
2022/07/23 06:31:45;;;;;;;0.03;0.03;;;;;;;19.80;58.39;102066.31;5059466;28;20029;-80
2022/07/23 06:34:11;;;;;;;0.20;0.20;;;;;;;19.87;58.14;102066.97;5059477;28;20454;-80
2022/07/23 06:36:37;;;;;;;0.10;0.10;;;;;;;19.90;58.06;102050.72;5059696;28;20033;-80
2022/07/23 06:39:03;;;;;;;0.28;0.28;;;;;;;19.94;57.74;102049.66;5060801;28;20091;-80
2022/07/23 06:41:29;;;;;;;0.08;0.08;;;;;;;19.97;57.35;102051.34;5059741;28;20040;-80
2022/07/23 06:43:55;;;;;;;0.10;0.10;;;;;;;19.98;57.39;102053.94;5060463;28;20037;-80
2022/07/23 06:46:21;;;;;;;0.10;0.10;;;;;;;20.03;57.50;102059.16;5060830;28;20031;-80
2022/07/23 06:48:47;;;;;;;0.10;0.10;;;;;;;20.07;57.44;102059.91;5059850;28;20178;-80
2022/07/23 06:51:14;;;;;;;0.10;0.10;;;;;;;20.11;57.49;102064.22;5057894;28;20040;-80
2022/07/23 06:53:40;;;;;;;0.00;0.00;;;;;;;20.14;57.49;102058.72;5060348;28;20036;-80
2022/07/23 06:56:07;;;;;;;0.10;0.10;;;;;;;20.19;57.47;102064.78;5061518;28;20032;-80
2022/07/23 06:58:33;;;;;;;0.10;0.10;;;;;;;20.18;57.05;102063.91;5060218;28;20068;-80
2022/07/23 07:00:59;;;;;;;0.00;0.00;;;;;;;20.26;57.28;102057.34;5059369;28;20698;-81
2022/07/23 07:03:25;;;;;;;0.10;0.10;;;;;;;20.28;56.41;102067.09;5060802;28;20083;-80
2022/07/23 07:05:51;;;;;;;1.65;1.55;;;;;;;20.33;56.28;102057.00;5059670;28;20139;-80
2022/07/23 07:08:18;;;;;;;0.03;0.03;;;;;;;20.43;56.64;102065.56;5061382;28;20089;-80
2022/07/23 07:10:44;;;;;;;0.20;0.20;;;;;;;20.48;55.81;102062.69;5060113;28;20561;-80
2022/07/23 07:13:10;;;;;;;0.10;0.10;;;;;;;20.55;55.96;102063.28;5059854;28;20378;-80
2022/07/23 07:15:36;;;;;;;0.10;0.10;;;;;;;20.61;56.27;102073.81;5058566;28;20032;-80
2022/07/23 07:18:02;;;;;;;0.10;0.10;;;;;;;20.65;56.15;102076.31;5059076;28;20021;-80
2022/07/23 07:20:28;;;;;;;0.57;0.57;;;;;;;20.66;53.76;102080.75;5058391;28;20051;-80
2022/07/23 07:22:54;;;;;;;0.35;0.35;;;;;;;20.73;54.75;102086.78;5058221;28;20405;-80
2022/07/23 07:25:20;;;;;;;0.03;0.03;;;;;;;20.77;55.61;102079.44;5058399;28;20048;-80
2022/07/23 07:27:46;;;;;;;0.10;0.10;;;;;;;20.76;54.95;102069.59;5058151;28;20025;-80
2022/07/23 07:30:13;;;;;;;0.00;0.00;;;;;;;20.79;55.24;102072.19;5060037;28;20021;-80
2022/07/23 07:32:40;;;;;;;0.00;0.00;;;;;;;20.75;54.03;102076.81;5058908;28;20025;-80
2022/07/23 07:35:07;;;;;;;0.00;0.00;;;;;;;20.81;54.64;102081.06;5058255;28;20119;-81
2022/07/23 07:37:33;;;;;;;0.00;0.00;;;;;;;20.91;55.34;102081.53;5057493;28;20033;-80
2022/07/23 07:39:59;;;;;;;0.00;0.00;;;;;;;20.96;54.39;102079.50;5040128;28;20029;-80
2022/07/23 07:42:26;;;;;;;0.00;0.00;;;;;;;21.05;53.63;102083.59;5055732;28;20071;-80
2022/07/23 07:44:52;;;;;;;0.00;0.00;;;;;;;21.17;54.07;102088.44;5051118;28;20040;-80
2022/07/23 07:47:18;;;;;;;0.00;0.00;;;;;;;21.25;54.17;102080.91;5047622;28;20028;-80
2022/07/23 07:49:46;;;;;;;0.08;0.08;;;;;;;21.37;54.52;102083.97;5049284;28;20052;-80
2022/07/23 07:52:12;;;;;;;0.10;0.10;;;;;;;21.43;54.16;102084.59;5048369;28;20036;-80
2022/07/23 07:54:38;;;;;;;0.00;0.00;;;;;;;21.48;53.65;102081.66;5054346;28;20040;-80
2022/07/23 07:57:05;;;;;;;0.10;0.10;;;;;;;21.51;53.75;102089.63;5049204;28;20536;-81
2022/07/23 07:59:31;;;;;;;0.00;0.00;;;;;;;21.54;53.21;102091.31;5056541;28;20021;-80
2022/07/23 08:01:57;;;;;;;0.10;0.10;;;;;;;21.57;53.37;102096.56;5055428;28;20025;-81
2022/07/23 08:04:23;;;;;;;0.10;0.10;;;;;;;21.61;52.54;102088.28;5054685;28;20032;-81
2022/07/23 08:06:49;;;;;;;0.10;0.10;;;;;;;21.67;52.71;102097.03;5056098;28;20067;-81
2022/07/23 08:09:15;;;;;;;0.10;0.10;;;;;;;21.69;52.98;102097.84;5056379;28;20043;-81
2022/07/23 08:11:41;;;;;;;0.10;0.10;;;;;;;21.68;53.09;102104.16;5055445;28;20033;-81
2022/07/23 08:14:07;;;;;;;0.10;0.10;;;;;;;21.76;53.26;102102.00;5057901;28;20029;-80
2022/07/23 08:16:33;;;;;;;0.27;0.27;;;;;;;21.86;53.24;102097.91;5057418;28;20053;-81
2022/07/23 08:18:59;;;;;;;0.20;0.20;;;;;;;21.91;51.48;102101.25;5054854;28;20037;-80
2022/07/23 08:21:25;;;;;;;0.10;0.10;;;;;;;22.00;52.48;102099.06;5054226;28;20021;-81
2022/07/23 08:23:51;;;;;;;0.20;0.20;;;;;;;22.02;52.64;102105.25;5056046;28;20485;-81
2022/07/23 08:26:17;;;;;;;0.10;0.10;;;;;;;22.07;52.97;102105.91;5056942;28;20435;-80
2022/07/23 08:28:44;;;;;;;0.10;0.10;;;;;;;22.11;50.95;102104.81;5057661;28;20028;-80
2022/07/23 08:31:11;;;;;;;0.10;0.10;;;;;;;22.19;50.92;102102.59;5059091;28;20040;-79
2022/07/23 08:33:37;;;;;;;0.10;0.10;;;;;;;22.21;51.74;102102.56;5057625;28;20093;-79
2022/07/23 08:36:04;;;;;;;0.10;0.10;;;;;;;22.23;50.81;102106.91;5058445;28;20037;-79
2022/07/23 08:38:31;;;;;;;0.10;0.10;;;;;;;22.30;51.76;102108.34;5058623;28;20104;-79
2022/07/23 08:40:58;;;;;;;0.63;0.63;;;;;;;22.33;50.60;102101.94;5060178;28;20020;-79
2022/07/23 08:43:27;;;;;;;0.10;0.10;;;;;;;22.32;51.01;102107.41;5062715;28;20079;-79
2022/07/23 08:45:56;;;;;;;0.05;0.05;;;;;;;22.42;50.66;102106.03;5061843;28;20036;-79
2022/07/23 08:48:25;;;;;;;0.30;0.30;;;;;;;22.54;50.88;102107.22;5060797;28;20029;-79
2022/07/23 08:50:54;;;;;;;0.10;0.10;;;;;;;22.59;50.69;102107.88;5054282;28;20040;-79
2022/07/23 08:53:22;;;;;;;0.10;0.10;;;;;;;22.73;51.02;102113.44;5062721;28;20060;-79
2022/07/23 08:55:50;;;;;;;0.00;0.00;;;;;;;22.82;50.00;102113.91;5060384;28;20035;-79
2022/07/23 08:58:17;;;;;;;0.10;0.10;;;;;;;22.82;49.12;102109.41;5051850;28;20030;-79
2022/07/23 09:00:44;;;;;;;0.10;0.10;;;;;;;22.94;50.62;102108.75;5055543;28;20028;-76
2022/07/23 09:03:20;;;;;;;0.10;0.10;;;;;;;23.13;50.29;102106.91;5055446;28;20036;-80
2022/07/23 09:05:47;;;;;;;0.10;0.10;;;;;;;23.14;48.82;102106.84;5055605;28;20055;-80
2022/07/23 09:08:15;;;;;;;0.20;0.20;;;;;;;23.26;50.43;102103.53;5053332;28;20045;-80
2022/07/23 09:10:59;;;;;;;0.00;0.00;;;;;;;23.46;48.87;102112.38;5054376;28;20029;-80
2022/07/23 09:16:12;;;;;;;0.10;0.10;;;;;;;23.57;49.42;102119.91;5093497;28;20389;-80
2022/07/23 09:34:38;;;;;;;0.10;0.10;;;;;;;24.12;46.63;102107.81;5109427;27;20910;-81
2022/07/23 09:37:13;;;;;;;0.10;0.10;;;;;;;24.26;46.11;102103.47;5090663;28;20447;-81
2022/07/23 09:39:40;;;;;;;0.00;0.00;;;;;;;24.19;43.22;102111.06;5090125;28;20025;-81
2022/07/23 09:42:24;;;;;;;0.00;0.00;;;;;;;24.37;46.58;102111.81;5093477;28;20095;-81
2022/07/23 09:44:53;;;;;;;0.20;0.20;;;;;;;24.38;45.40;102113.56;5093509;28;20455;-81
2022/07/23 09:47:22;;;;;;;0.00;0.00;;;;;;;24.46;46.81;102111.31;5095267;28;20028;-80
2022/07/23 09:50:09;;;;;;;0.10;0.10;;;;;;;24.58;43.82;102114.25;5087213;28;20028;-81
2022/07/23 09:52:45;;;;;;;0.08;0.08;;;;;;;24.58;44.39;102115.09;5097071;28;20064;-80
2022/07/23 09:55:12;;;;;;;0.30;0.28;;;;;;;24.63;44.90;102117.56;5099971;28;20060;-80
2022/07/23 09:57:40;;;;;;;0.10;0.10;;;;;;;24.69;44.19;102111.78;5099720;28;20036;-79
2022/07/23 10:00:09;;;;;;;0.10;0.10;;;;;;;24.69;44.59;102112.66;5099024;28;20492;-80
2022/07/23 10:02:37;;;;;;;0.10;0.10;;;;;;;24.75;44.38;102119.56;5097793;28;20430;-80
2022/07/23 10:05:04;;;;;;;0.30;0.30;;;;;;;24.75;44.95;102111.44;5102441;28;20032;-80
2022/07/23 10:07:34;;;;;;;0.10;0.10;;;;;;;24.87;45.49;102121.53;5101968;28;20067;-80
2022/07/23 10:10:02;;;;;;;0.20;0.20;;;;;;;24.96;44.68;102117.38;5101952;28;20036;-80
2022/07/23 10:15:15;;;;;;;0.10;0.10;;;;;;;25.14;45.41;102112.66;5098567;28;20044;-80
2022/07/23 10:17:41;;;;;;;0.10;0.10;;;;;;;25.23;44.30;102116.63;5099116;28;20507;-80
2022/07/23 10:20:08;;;;;;;0.10;0.10;;;;;;;25.33;44.75;102115.13;5101101;28;20395;-80
2022/07/23 10:22:38;;;;;;;0.20;0.20;;;;;;;25.48;43.73;102109.72;5100821;28;20032;-80
2022/07/23 10:25:34;;;;;;;0.00;0.00;;;;;;;25.72;42.37;102117.25;5101290;28;20051;-80
2022/07/23 10:28:40;;;;;;;0.20;0.20;;;;;;;25.89;43.43;102108.03;5101045;28;20072;-80
2022/07/23 10:31:25;;;;;;;0.00;0.00;;;;;;;26.01;44.19;102107.22;5096839;28;20044;-80
2022/07/23 10:36:47;;;;;;;0.10;0.10;;;;;;;26.39;43.38;102106.53;5140101;27;20362;-80
2022/07/23 10:39:25;;;;;;;0.08;0.05;;;;;;;26.48;41.49;102099.59;5142860;27;20031;-81
2022/07/23 10:41:52;;;;;;;0.10;0.10;;;;;;;26.52;43.01;102098.44;5129298;27;20087;-80
2022/07/23 10:44:22;;;;;;;0.10;0.10;;;;;;;26.55;39.34;102098.22;5128370;27;20039;-80
2022/07/23 10:49:32;;;;;;;0.10;0.10;;;;;;;26.67;39.82;102104.69;5119048;27;20376;-80
2022/07/23 10:52:21;;;;;;;0.05;0.05;;;;;;;26.85;41.46;102101.69;5118694;28;20040;-79
2022/07/23 10:57:28;;;;;;;0.30;0.30;;;;;;;26.72;42.22;102094.34;5127592;27;20397;-79
2022/07/23 11:02:55;;;;;;;0.28;0.28;;;;;;;26.79;42.96;102086.66;5072122;28;20414;-80
2022/07/23 11:05:24;;;;;;;1.02;0.95;;;;;;;26.88;42.17;102091.47;5058707;28;20044;-80
2022/07/23 11:24:08;;;;;;;0.10;0.10;;;;;;;27.09;41.08;102089.09;5079425;28;20342;-80
2022/07/23 11:32:26;;;;;;;0.10;0.10;;;;;;;27.36;38.62;102090.81;5110375;27;20424;-82
2022/07/23 11:34:53;;;;;;;0.10;0.10;;;;;;;27.42;39.76;102084.97;5109847;28;20047;-80
2022/07/23 11:37:31;;;;;;;0.00;0.00;;;;;;;27.57;41.06;102082.13;5112163;28;20019;-81
2022/07/23 11:39:58;;;;;;;0.00;0.00;;;;;;;27.52;39.12;102085.16;5111655;28;20020;-81
2022/07/23 11:42:24;;;;;;;0.10;0.10;;;;;;;27.56;40.56;102081.22;5112143;28;20028;-82
2022/07/23 11:44:51;;;;;;;3.97;0.75;;;;;;;27.65;40.23;102076.97;5110466;28;20035;-80
2022/07/23 11:47:23;;;;;;;0.10;0.10;;;;;;;27.75;39.90;102080.78;5108856;28;20573;-81
2022/07/23 11:49:53;;;;;;;0.00;0.00;;;;;;;27.85;39.50;102074.63;5111927;28;20156;-80
2022/07/23 11:52:20;;;;;;;0.10;0.10;;;;;;;27.92;39.72;102071.31;5110676;28;20427;-82
2022/07/23 11:54:51;;;;;;;0.08;0.08;;;;;;;28.06;39.52;102066.72;5111996;28;20020;-82
2022/07/23 11:57:18;;;;;;;0.10;0.10;;;;;;;28.07;38.79;102063.88;5111622;28;20103;-81
2022/07/23 11:59:49;;;;;;;0.30;0.30;;;;;;;28.15;39.56;102065.16;5108301;28;20075;-81
2022/07/23 12:02:15;;;;;;;0.10;0.10;;;;;;;28.17;39.22;102063.22;5109978;28;20053;-81
2022/07/23 12:04:46;;;;;;;0.10;0.10;;;;;;;28.15;38.77;102057.00;5110993;28;20046;-80
2022/07/23 12:07:29;;;;;;;0.20;0.20;;;;;;;28.35;39.07;102059.09;5111505;28;20519;-81
2022/07/23 12:09:58;;;;;;;0.10;0.10;;;;;;;28.39;38.88;102052.41;5111864;28;20069;-80
2022/07/23 12:12:27;;;;;;;0.13;0.13;;;;;;;28.35;39.32;102044.56;5111667;28;20053;-81
2022/07/23 12:17:32;;;;;;;0.20;0.20;;;;;;;28.65;37.35;102054.97;5147896;27;1169061;-81
2022/07/23 12:19:59;;;;;;;0.15;0.15;;;;;;;28.76;38.23;102054.13;5161891;27;20031;-79
2022/07/23 12:22:33;;;;;;;0.10;0.10;;;;;;;28.87;36.63;102050.56;5157267;27;20023;-79